sensor_id;sensor_type;location;lat;lon;timestamp;P1;durP1;ratioP1;P2;durP2;ratioP2
71172;SDS011;58875;51.996;4.504;2023-07-31T00:00:07;12.50;;;9.79;;
71172;SDS011;58875;51.996;4.504;2023-07-31T00:02:36;13.10;;;10.26;;
71172;SDS011;58875;51.996;4.504;2023-07-31T00:05:01;11.84;;;9.33;;
71172;SDS011;58875;51.996;4.504;2023-07-31T00:07:28;11.63;;;9.25;;
71172;SDS011;58875;51.996;4.504;2023-07-31T00:09:53;12.57;;;9.87;;
71172;SDS011;58875;51.996;4.504;2023-07-31T00:12:19;12.53;;;9.83;;
71172;SDS011;58875;51.996;4.504;2023-07-31T00:14:45;12.78;;;10.05;;
71172;SDS011;58875;51.996;4.504;2023-07-31T00:17:11;11.55;;;9.28;;
71172;SDS011;58875;51.996;4.504;2023-07-31T00:19:37;12.08;;;9.63;;
71172;SDS011;58875;51.996;4.504;2023-07-31T00:22:02;12.15;;;9.62;;
71172;SDS011;58875;51.996;4.504;2023-07-31T00:24:28;11.48;;;9.13;;
71172;SDS011;58875;51.996;4.504;2023-07-31T00:26:54;11.60;;;9.50;;
71172;SDS011;58875;51.996;4.504;2023-07-31T00:29:19;12.44;;;10.02;;
71172;SDS011;58875;51.996;4.504;2023-07-31T00:31:45;12.98;;;10.45;;
71172;SDS011;58875;51.996;4.504;2023-07-31T00:34:10;12.92;;;10.42;;
71172;SDS011;58875;51.996;4.504;2023-07-31T00:36:36;12.47;;;10.04;;
71172;SDS011;58875;51.996;4.504;2023-07-31T00:39:01;11.82;;;9.77;;
71172;SDS011;58875;51.996;4.504;2023-07-31T00:41:27;12.17;;;9.88;;
71172;SDS011;58875;51.996;4.504;2023-07-31T00:43:53;13.75;;;10.82;;
71172;SDS011;58875;51.996;4.504;2023-07-31T00:46:18;14.16;;;11.19;;
71172;SDS011;58875;51.996;4.504;2023-07-31T00:48:45;14.00;;;11.11;;
71172;SDS011;58875;51.996;4.504;2023-07-31T00:51:11;16.19;;;12.37;;
71172;SDS011;58875;51.996;4.504;2023-07-31T00:53:36;15.08;;;11.72;;
71172;SDS011;58875;51.996;4.504;2023-07-31T00:56:03;13.53;;;10.65;;
71172;SDS011;58875;51.996;4.504;2023-07-31T00:58:29;12.90;;;10.31;;
71172;SDS011;58875;51.996;4.504;2023-07-31T01:00:55;11.11;;;9.02;;
71172;SDS011;58875;51.996;4.504;2023-07-31T01:03:21;9.26;;;7.87;;
71172;SDS011;58875;51.996;4.504;2023-07-31T01:11:30;7.75;;;6.48;;
71172;SDS011;58875;51.996;4.504;2023-07-31T01:14:00;7.29;;;6.38;;
71172;SDS011;58875;51.996;4.504;2023-07-31T01:16:26;7.76;;;6.71;;
71172;SDS011;58875;51.996;4.504;2023-07-31T01:18:52;7.81;;;6.75;;
71172;SDS011;58875;51.996;4.504;2023-07-31T01:27:04;11.44;;;9.39;;
71172;SDS011;58875;51.996;4.504;2023-07-31T01:29:37;12.13;;;9.70;;
71172;SDS011;58875;51.996;4.504;2023-07-31T01:32:19;12.45;;;9.96;;
71172;SDS011;58875;51.996;4.504;2023-07-31T01:34:46;13.25;;;10.42;;
71172;SDS011;58875;51.996;4.504;2023-07-31T01:37:12;13.14;;;10.39;;
71172;SDS011;58875;51.996;4.504;2023-07-31T01:39:37;13.22;;;10.46;;
71172;SDS011;58875;51.996;4.504;2023-07-31T01:42:03;11.63;;;9.25;;
71172;SDS011;58875;51.996;4.504;2023-07-31T01:44:28;11.72;;;9.39;;
71172;SDS011;58875;51.996;4.504;2023-07-31T01:46:54;11.20;;;9.13;;
71172;SDS011;58875;51.996;4.504;2023-07-31T01:49:20;11.89;;;9.42;;
71172;SDS011;58875;51.996;4.504;2023-07-31T01:51:45;11.65;;;9.24;;
71172;SDS011;58875;51.996;4.504;2023-07-31T01:54:11;12.33;;;9.58;;
71172;SDS011;58875;51.996;4.504;2023-07-31T01:56:36;11.23;;;8.97;;
71172;SDS011;58875;51.996;4.504;2023-07-31T01:59:02;12.77;;;9.88;;
71172;SDS011;58875;51.996;4.504;2023-07-31T02:01:27;11.89;;;9.41;;
71172;SDS011;58875;51.996;4.504;2023-07-31T02:03:53;12.09;;;9.64;;
71172;SDS011;58875;51.996;4.504;2023-07-31T02:06:19;11.85;;;9.66;;
71172;SDS011;58875;51.996;4.504;2023-07-31T02:08:44;13.20;;;10.58;;
71172;SDS011;58875;51.996;4.504;2023-07-31T02:11:10;13.02;;;10.58;;
71172;SDS011;58875;51.996;4.504;2023-07-31T02:13:35;12.46;;;10.22;;
71172;SDS011;58875;51.996;4.504;2023-07-31T02:16:01;13.17;;;10.65;;
71172;SDS011;58875;51.996;4.504;2023-07-31T02:18:26;13.86;;;11.21;;
71172;SDS011;58875;51.996;4.504;2023-07-31T02:20:52;12.38;;;10.28;;
71172;SDS011;58875;51.996;4.504;2023-07-31T02:23:18;10.96;;;9.41;;
71172;SDS011;58875;51.996;4.504;2023-07-31T02:25:44;11.05;;;9.50;;
71172;SDS011;58875;51.996;4.504;2023-07-31T02:28:10;11.50;;;9.54;;
71172;SDS011;58875;51.996;4.504;2023-07-31T02:30:36;11.44;;;9.59;;
71172;SDS011;58875;51.996;4.504;2023-07-31T02:33:02;10.83;;;9.34;;
71172;SDS011;58875;51.996;4.504;2023-07-31T02:35:27;10.67;;;9.10;;
71172;SDS011;58875;51.996;4.504;2023-07-31T02:37:53;10.37;;;8.75;;
71172;SDS011;58875;51.996;4.504;2023-07-31T02:40:18;10.88;;;9.20;;
71172;SDS011;58875;51.996;4.504;2023-07-31T02:42:44;11.37;;;9.65;;
71172;SDS011;58875;51.996;4.504;2023-07-31T02:45:10;11.08;;;9.54;;
71172;SDS011;58875;51.996;4.504;2023-07-31T02:47:35;9.41;;;8.49;;
71172;SDS011;58875;51.996;4.504;2023-07-31T02:50:04;9.64;;;8.77;;
71172;SDS011;58875;51.996;4.504;2023-07-31T02:52:30;9.27;;;8.49;;
71172;SDS011;58875;51.996;4.504;2023-07-31T02:54:56;9.84;;;8.77;;
71172;SDS011;58875;51.996;4.504;2023-07-31T02:57:22;9.45;;;8.32;;
71172;SDS011;58875;51.996;4.504;2023-07-31T02:59:47;10.51;;;8.88;;
71172;SDS011;58875;51.996;4.504;2023-07-31T03:02:13;9.73;;;8.30;;
71172;SDS011;58875;51.996;4.504;2023-07-31T03:04:39;9.69;;;8.43;;
71172;SDS011;58875;51.996;4.504;2023-07-31T03:07:05;10.07;;;8.53;;
71172;SDS011;58875;51.996;4.504;2023-07-31T03:09:30;10.70;;;8.98;;
71172;SDS011;58875;51.996;4.504;2023-07-31T03:11:56;10.15;;;8.61;;
71172;SDS011;58875;51.996;4.504;2023-07-31T03:14:21;10.53;;;8.80;;
71172;SDS011;58875;51.996;4.504;2023-07-31T03:16:47;10.17;;;8.63;;
71172;SDS011;58875;51.996;4.504;2023-07-31T03:19:13;9.40;;;8.04;;
71172;SDS011;58875;51.996;4.504;2023-07-31T03:21:39;8.47;;;7.45;;
71172;SDS011;58875;51.996;4.504;2023-07-31T03:24:04;8.39;;;7.45;;
71172;SDS011;58875;51.996;4.504;2023-07-31T03:26:31;8.88;;;7.73;;
71172;SDS011;58875;51.996;4.504;2023-07-31T03:28:57;8.89;;;7.82;;
71172;SDS011;58875;51.996;4.504;2023-07-31T03:31:25;8.78;;;7.71;;
71172;SDS011;58875;51.996;4.504;2023-07-31T03:33:51;8.98;;;7.78;;
71172;SDS011;58875;51.996;4.504;2023-07-31T03:36:16;8.85;;;7.79;;
71172;SDS011;58875;51.996;4.504;2023-07-31T03:38:42;8.50;;;7.55;;
71172;SDS011;58875;51.996;4.504;2023-07-31T03:41:08;8.53;;;7.55;;
71172;SDS011;58875;51.996;4.504;2023-07-31T03:43:33;9.37;;;8.06;;
71172;SDS011;58875;51.996;4.504;2023-07-31T03:45:59;9.29;;;8.01;;
71172;SDS011;58875;51.996;4.504;2023-07-31T03:48:25;8.36;;;7.37;;
71172;SDS011;58875;51.996;4.504;2023-07-31T03:50:51;7.88;;;7.02;;
71172;SDS011;58875;51.996;4.504;2023-07-31T03:53:17;8.33;;;7.50;;
71172;SDS011;58875;51.996;4.504;2023-07-31T03:55:42;7.96;;;7.13;;
71172;SDS011;58875;51.996;4.504;2023-07-31T03:58:08;7.29;;;6.80;;
71172;SDS011;58875;51.996;4.504;2023-07-31T04:00:33;7.46;;;6.93;;
71172;SDS011;58875;51.996;4.504;2023-07-31T04:02:59;7.00;;;6.40;;
71172;SDS011;58875;51.996;4.504;2023-07-31T04:05:25;5.81;;;5.33;;
71172;SDS011;58875;51.996;4.504;2023-07-31T04:07:50;4.91;;;4.64;;
71172;SDS011;58875;51.996;4.504;2023-07-31T04:10:16;4.31;;;4.13;;
71172;SDS011;58875;51.996;4.504;2023-07-31T04:12:41;4.20;;;4.05;;
71172;SDS011;58875;51.996;4.504;2023-07-31T04:15:07;4.54;;;4.38;;
71172;SDS011;58875;51.996;4.504;2023-07-31T04:17:33;4.27;;;4.12;;
71172;SDS011;58875;51.996;4.504;2023-07-31T04:19:59;3.98;;;3.86;;
71172;SDS011;58875;51.996;4.504;2023-07-31T04:22:24;4.27;;;4.12;;
71172;SDS011;58875;51.996;4.504;2023-07-31T04:24:50;4.61;;;4.44;;
71172;SDS011;58875;51.996;4.504;2023-07-31T04:27:15;4.57;;;4.47;;
71172;SDS011;58875;51.996;4.504;2023-07-31T04:29:41;4.24;;;4.16;;
71172;SDS011;58875;51.996;4.504;2023-07-31T04:32:07;4.05;;;3.96;;
71172;SDS011;58875;51.996;4.504;2023-07-31T04:34:33;3.97;;;3.89;;
71172;SDS011;58875;51.996;4.504;2023-07-31T04:36:59;3.89;;;3.82;;
71172;SDS011;58875;51.996;4.504;2023-07-31T04:39:24;3.78;;;3.72;;
71172;SDS011;58875;51.996;4.504;2023-07-31T04:41:50;3.87;;;3.84;;
71172;SDS011;58875;51.996;4.504;2023-07-31T04:44:15;3.79;;;3.75;;
71172;SDS011;58875;51.996;4.504;2023-07-31T04:46:41;4.12;;;4.09;;
71172;SDS011;58875;51.996;4.504;2023-07-31T04:49:06;4.65;;;4.61;;
71172;SDS011;58875;51.996;4.504;2023-07-31T04:51:32;4.62;;;4.58;;
71172;SDS011;58875;51.996;4.504;2023-07-31T04:53:57;4.64;;;4.61;;
71172;SDS011;58875;51.996;4.504;2023-07-31T04:56:23;4.98;;;4.93;;
71172;SDS011;58875;51.996;4.504;2023-07-31T04:58:48;4.99;;;4.95;;
71172;SDS011;58875;51.996;4.504;2023-07-31T05:01:14;4.68;;;4.67;;
71172;SDS011;58875;51.996;4.504;2023-07-31T05:03:39;4.70;;;4.70;;
71172;SDS011;58875;51.996;4.504;2023-07-31T05:06:05;4.95;;;4.95;;
71172;SDS011;58875;51.996;4.504;2023-07-31T05:08:30;4.53;;;4.53;;
71172;SDS011;58875;51.996;4.504;2023-07-31T05:10:56;4.55;;;4.55;;
71172;SDS011;58875;51.996;4.504;2023-07-31T05:13:21;4.69;;;4.69;;
71172;SDS011;58875;51.996;4.504;2023-07-31T05:15:47;4.67;;;4.67;;
71172;SDS011;58875;51.996;4.504;2023-07-31T05:18:14;4.36;;;4.35;;
71172;SDS011;58875;51.996;4.504;2023-07-31T05:20:40;3.98;;;3.98;;
71172;SDS011;58875;51.996;4.504;2023-07-31T05:23:06;4.01;;;4.00;;
71172;SDS011;58875;51.996;4.504;2023-07-31T05:25:32;4.09;;;4.09;;
71172;SDS011;58875;51.996;4.504;2023-07-31T05:27:57;3.86;;;3.86;;
71172;SDS011;58875;51.996;4.504;2023-07-31T05:30:22;3.48;;;3.48;;
71172;SDS011;58875;51.996;4.504;2023-07-31T05:32:48;3.24;;;3.24;;
71172;SDS011;58875;51.996;4.504;2023-07-31T05:35:13;3.21;;;3.20;;
71172;SDS011;58875;51.996;4.504;2023-07-31T05:37:39;3.29;;;3.27;;
71172;SDS011;58875;51.996;4.504;2023-07-31T05:40:05;3.25;;;3.23;;
71172;SDS011;58875;51.996;4.504;2023-07-31T05:42:31;3.07;;;3.05;;
71172;SDS011;58875;51.996;4.504;2023-07-31T05:44:56;2.89;;;2.87;;
71172;SDS011;58875;51.996;4.504;2023-07-31T05:47:21;2.98;;;2.97;;
71172;SDS011;58875;51.996;4.504;2023-07-31T05:49:48;2.86;;;2.86;;
71172;SDS011;58875;51.996;4.504;2023-07-31T05:52:14;3.08;;;3.07;;
71172;SDS011;58875;51.996;4.504;2023-07-31T05:54:41;2.99;;;2.98;;
71172;SDS011;58875;51.996;4.504;2023-07-31T05:57:07;2.94;;;2.90;;
71172;SDS011;58875;51.996;4.504;2023-07-31T05:59:32;2.98;;;2.92;;
71172;SDS011;58875;51.996;4.504;2023-07-31T06:02:01;2.91;;;2.87;;
71172;SDS011;58875;51.996;4.504;2023-07-31T06:04:27;2.79;;;2.77;;
71172;SDS011;58875;51.996;4.504;2023-07-31T06:06:53;3.06;;;3.05;;
71172;SDS011;58875;51.996;4.504;2023-07-31T06:09:19;2.88;;;2.88;;
71172;SDS011;58875;51.996;4.504;2023-07-31T06:11:45;2.80;;;2.80;;
71172;SDS011;58875;51.996;4.504;2023-07-31T06:14:11;2.62;;;2.62;;
71172;SDS011;58875;51.996;4.504;2023-07-31T06:16:37;2.39;;;2.39;;
71172;SDS011;58875;51.996;4.504;2023-07-31T06:19:05;2.42;;;2.42;;
71172;SDS011;58875;51.996;4.504;2023-07-31T06:21:32;2.60;;;2.60;;
71172;SDS011;58875;51.996;4.504;2023-07-31T06:23:58;2.17;;;2.16;;
71172;SDS011;58875;51.996;4.504;2023-07-31T06:26:24;2.18;;;2.17;;
71172;SDS011;58875;51.996;4.504;2023-07-31T06:28:49;2.29;;;2.28;;
71172;SDS011;58875;51.996;4.504;2023-07-31T06:31:15;2.26;;;2.23;;
71172;SDS011;58875;51.996;4.504;2023-07-31T06:33:40;1.64;;;1.64;;
71172;SDS011;58875;51.996;4.504;2023-07-31T06:36:06;1.93;;;1.93;;
71172;SDS011;58875;51.996;4.504;2023-07-31T06:38:31;1.81;;;1.80;;
71172;SDS011;58875;51.996;4.504;2023-07-31T06:40:57;1.74;;;1.73;;
71172;SDS011;58875;51.996;4.504;2023-07-31T06:43:22;1.66;;;1.66;;
71172;SDS011;58875;51.996;4.504;2023-07-31T06:45:48;1.72;;;1.72;;
71172;SDS011;58875;51.996;4.504;2023-07-31T06:48:16;1.85;;;1.85;;
71172;SDS011;58875;51.996;4.504;2023-07-31T06:50:41;1.49;;;1.49;;
71172;SDS011;58875;51.996;4.504;2023-07-31T06:53:07;1.42;;;1.42;;
71172;SDS011;58875;51.996;4.504;2023-07-31T06:55:32;1.56;;;1.55;;
71172;SDS011;58875;51.996;4.504;2023-07-31T06:57:58;1.40;;;1.40;;
71172;SDS011;58875;51.996;4.504;2023-07-31T07:00:23;1.63;;;1.63;;
71172;SDS011;58875;51.996;4.504;2023-07-31T07:02:49;1.33;;;1.33;;
71172;SDS011;58875;51.996;4.504;2023-07-31T07:05:16;1.33;;;1.33;;
71172;SDS011;58875;51.996;4.504;2023-07-31T07:07:42;1.46;;;1.45;;
71172;SDS011;58875;51.996;4.504;2023-07-31T07:10:08;1.33;;;1.32;;
71172;SDS011;58875;51.996;4.504;2023-07-31T07:12:34;1.32;;;1.31;;
71172;SDS011;58875;51.996;4.504;2023-07-31T07:15:00;1.47;;;1.46;;
71172;SDS011;58875;51.996;4.504;2023-07-31T07:17:28;1.46;;;1.45;;
71172;SDS011;58875;51.996;4.504;2023-07-31T07:19:58;1.29;;;1.28;;
71172;SDS011;58875;51.996;4.504;2023-07-31T07:22:24;1.31;;;1.31;;
71172;SDS011;58875;51.996;4.504;2023-07-31T07:24:51;1.23;;;1.22;;
71172;SDS011;58875;51.996;4.504;2023-07-31T07:27:16;1.29;;;1.28;;
71172;SDS011;58875;51.996;4.504;2023-07-31T07:29:42;1.26;;;1.25;;
71172;SDS011;58875;51.996;4.504;2023-07-31T07:32:07;1.22;;;1.22;;
71172;SDS011;58875;51.996;4.504;2023-07-31T07:34:33;1.26;;;1.26;;
71172;SDS011;58875;51.996;4.504;2023-07-31T07:36:59;1.36;;;1.36;;
71172;SDS011;58875;51.996;4.504;2023-07-31T07:39:24;1.23;;;1.23;;
71172;SDS011;58875;51.996;4.504;2023-07-31T07:41:50;1.17;;;1.17;;
71172;SDS011;58875;51.996;4.504;2023-07-31T07:44:15;1.14;;;1.14;;
71172;SDS011;58875;51.996;4.504;2023-07-31T07:46:41;1.14;;;1.14;;
71172;SDS011;58875;51.996;4.504;2023-07-31T07:49:07;1.08;;;1.08;;
71172;SDS011;58875;51.996;4.504;2023-07-31T07:51:32;0.99;;;0.99;;
71172;SDS011;58875;51.996;4.504;2023-07-31T07:53:58;0.84;;;0.84;;
71172;SDS011;58875;51.996;4.504;2023-07-31T07:56:27;0.94;;;0.94;;
71172;SDS011;58875;51.996;4.504;2023-07-31T07:58:54;1.01;;;1.01;;
71172;SDS011;58875;51.996;4.504;2023-07-31T08:01:20;0.97;;;0.97;;
71172;SDS011;58875;51.996;4.504;2023-07-31T08:03:46;0.82;;;0.82;;
71172;SDS011;58875;51.996;4.504;2023-07-31T08:06:12;0.76;;;0.76;;
71172;SDS011;58875;51.996;4.504;2023-07-31T08:08:38;0.76;;;0.76;;
71172;SDS011;58875;51.996;4.504;2023-07-31T08:11:04;0.87;;;0.87;;
71172;SDS011;58875;51.996;4.504;2023-07-31T08:13:30;1.02;;;1.02;;
71172;SDS011;58875;51.996;4.504;2023-07-31T08:15:55;0.93;;;0.93;;
71172;SDS011;58875;51.996;4.504;2023-07-31T08:18:21;1.05;;;1.05;;
71172;SDS011;58875;51.996;4.504;2023-07-31T08:20:47;1.08;;;1.08;;
71172;SDS011;58875;51.996;4.504;2023-07-31T08:23:12;1.21;;;1.21;;
71172;SDS011;58875;51.996;4.504;2023-07-31T08:25:38;1.26;;;1.26;;
71172;SDS011;58875;51.996;4.504;2023-07-31T08:28:04;1.40;;;1.40;;
71172;SDS011;58875;51.996;4.504;2023-07-31T08:30:31;1.31;;;1.31;;
71172;SDS011;58875;51.996;4.504;2023-07-31T08:32:58;1.39;;;1.39;;
71172;SDS011;58875;51.996;4.504;2023-07-31T08:35:25;1.25;;;1.25;;
71172;SDS011;58875;51.996;4.504;2023-07-31T08:37:53;1.25;;;1.25;;
71172;SDS011;58875;51.996;4.504;2023-07-31T08:40:18;1.31;;;1.31;;
71172;SDS011;58875;51.996;4.504;2023-07-31T08:42:44;1.12;;;1.12;;
71172;SDS011;58875;51.996;4.504;2023-07-31T08:45:13;1.18;;;1.18;;
71172;SDS011;58875;51.996;4.504;2023-07-31T08:47:42;1.06;;;1.06;;
71172;SDS011;58875;51.996;4.504;2023-07-31T08:50:13;1.21;;;1.21;;
71172;SDS011;58875;51.996;4.504;2023-07-31T08:52:40;1.55;;;1.55;;
71172;SDS011;58875;51.996;4.504;2023-07-31T08:55:08;1.78;;;1.78;;
71172;SDS011;58875;51.996;4.504;2023-07-31T08:57:36;1.96;;;1.96;;
71172;SDS011;58875;51.996;4.504;2023-07-31T09:00:03;2.19;;;2.19;;
71172;SDS011;58875;51.996;4.504;2023-07-31T09:02:37;2.24;;;2.24;;
71172;SDS011;58875;51.996;4.504;2023-07-31T09:05:11;2.31;;;2.31;;
71172;SDS011;58875;51.996;4.504;2023-07-31T09:07:37;2.40;;;2.40;;
71172;SDS011;58875;51.996;4.504;2023-07-31T09:10:04;2.48;;;2.46;;
71172;SDS011;58875;51.996;4.504;2023-07-31T09:12:30;2.32;;;2.26;;
71172;SDS011;58875;51.996;4.504;2023-07-31T09:14:57;2.81;;;2.75;;
71172;SDS011;58875;51.996;4.504;2023-07-31T09:17:30;3.14;;;3.06;;
71172;SDS011;58875;51.996;4.504;2023-07-31T09:19:57;3.35;;;3.32;;
71172;SDS011;58875;51.996;4.504;2023-07-31T09:22:32;2.86;;;2.84;;
71172;SDS011;58875;51.996;4.504;2023-07-31T09:25:15;2.94;;;2.94;;
71172;SDS011;58875;51.996;4.504;2023-07-31T09:27:57;2.75;;;2.75;;
71172;SDS011;58875;51.996;4.504;2023-07-31T09:30:24;2.76;;;2.76;;
71172;SDS011;58875;51.996;4.504;2023-07-31T09:32:51;2.66;;;2.66;;
71172;SDS011;58875;51.996;4.504;2023-07-31T09:35:35;2.56;;;2.56;;
71172;SDS011;58875;51.996;4.504;2023-07-31T09:40:30;2.06;;;2.06;;
71172;SDS011;58875;51.996;4.504;2023-07-31T09:42:58;1.93;;;1.93;;
71172;SDS011;58875;51.996;4.504;2023-07-31T09:45:25;1.79;;;1.79;;
71172;SDS011;58875;51.996;4.504;2023-07-31T09:47:51;1.96;;;1.96;;
71172;SDS011;58875;51.996;4.504;2023-07-31T09:50:17;2.00;;;2.00;;
71172;SDS011;58875;51.996;4.504;2023-07-31T09:52:44;2.19;;;2.19;;
71172;SDS011;58875;51.996;4.504;2023-07-31T09:55:10;2.16;;;2.16;;
71172;SDS011;58875;51.996;4.504;2023-07-31T09:57:38;2.22;;;2.22;;
71172;SDS011;58875;51.996;4.504;2023-07-31T10:00:08;2.22;;;2.22;;
71172;SDS011;58875;51.996;4.504;2023-07-31T10:02:34;2.23;;;2.23;;
71172;SDS011;58875;51.996;4.504;2023-07-31T10:05:02;1.94;;;1.94;;
71172;SDS011;58875;51.996;4.504;2023-07-31T10:07:29;2.10;;;2.10;;
71172;SDS011;58875;51.996;4.504;2023-07-31T10:10:00;2.10;;;2.10;;
71172;SDS011;58875;51.996;4.504;2023-07-31T10:12:26;1.93;;;1.92;;
71172;SDS011;58875;51.996;4.504;2023-07-31T10:14:55;1.99;;;1.96;;
71172;SDS011;58875;51.996;4.504;2023-07-31T10:17:22;2.37;;;2.32;;
71172;SDS011;58875;51.996;4.504;2023-07-31T10:19:49;2.21;;;2.20;;
71172;SDS011;58875;51.996;4.504;2023-07-31T10:22:15;2.48;;;2.45;;
71172;SDS011;58875;51.996;4.504;2023-07-31T10:24:44;2.58;;;2.53;;
71172;SDS011;58875;51.996;4.504;2023-07-31T10:27:11;2.70;;;2.62;;
71172;SDS011;58875;51.996;4.504;2023-07-31T10:29:41;2.93;;;2.86;;
71172;SDS011;58875;51.996;4.504;2023-07-31T10:32:10;2.82;;;2.76;;
71172;SDS011;58875;51.996;4.504;2023-07-31T10:34:39;2.89;;;2.80;;
71172;SDS011;58875;51.996;4.504;2023-07-31T10:37:25;3.01;;;2.93;;
71172;SDS011;58875;51.996;4.504;2023-07-31T10:39:57;3.24;;;3.09;;
71172;SDS011;58875;51.996;4.504;2023-07-31T10:42:37;3.63;;;3.38;;
71172;SDS011;58875;51.996;4.504;2023-07-31T10:45:10;3.43;;;3.16;;
71172;SDS011;58875;51.996;4.504;2023-07-31T10:47:42;3.93;;;3.50;;
71172;SDS011;58875;51.996;4.504;2023-07-31T10:50:20;3.63;;;3.19;;
71172;SDS011;58875;51.996;4.504;2023-07-31T10:52:54;3.72;;;3.28;;
71172;SDS011;58875;51.996;4.504;2023-07-31T10:58:11;3.98;;;3.32;;
71172;SDS011;58875;51.996;4.504;2023-07-31T11:00:41;3.92;;;3.31;;
71172;SDS011;58875;51.996;4.504;2023-07-31T11:03:10;3.82;;;3.34;;
71172;SDS011;58875;51.996;4.504;2023-07-31T11:08:18;3.49;;;3.10;;
71172;SDS011;58875;51.996;4.504;2023-07-31T11:13:32;3.27;;;2.89;;
71172;SDS011;58875;51.996;4.504;2023-07-31T11:16:01;3.15;;;2.79;;
71172;SDS011;58875;51.996;4.504;2023-07-31T11:18:26;2.97;;;2.68;;
71172;SDS011;58875;51.996;4.504;2023-07-31T11:20:52;2.86;;;2.60;;
71172;SDS011;58875;51.996;4.504;2023-07-31T11:23:19;2.84;;;2.62;;
71172;SDS011;58875;51.996;4.504;2023-07-31T11:25:45;2.88;;;2.64;;
71172;SDS011;58875;51.996;4.504;2023-07-31T11:28:12;3.39;;;3.09;;
71172;SDS011;58875;51.996;4.504;2023-07-31T11:30:39;3.51;;;3.24;;
71172;SDS011;58875;51.996;4.504;2023-07-31T11:33:06;3.23;;;3.00;;
71172;SDS011;58875;51.996;4.504;2023-07-31T11:35:35;2.92;;;2.70;;
71172;SDS011;58875;51.996;4.504;2023-07-31T11:38:06;3.02;;;2.81;;
71172;SDS011;58875;51.996;4.504;2023-07-31T11:40:40;3.08;;;2.87;;
71172;SDS011;58875;51.996;4.504;2023-07-31T11:43:07;3.04;;;2.83;;
71172;SDS011;58875;51.996;4.504;2023-07-31T11:45:33;3.21;;;3.03;;
71172;SDS011;58875;51.996;4.504;2023-07-31T11:48:00;3.33;;;3.12;;
71172;SDS011;58875;51.996;4.504;2023-07-31T11:50:26;3.39;;;3.24;;
71172;SDS011;58875;51.996;4.504;2023-07-31T11:53:00;3.23;;;3.20;;
71172;SDS011;58875;51.996;4.504;2023-07-31T11:55:31;3.16;;;3.16;;
71172;SDS011;58875;51.996;4.504;2023-07-31T11:57:58;3.06;;;3.06;;
71172;SDS011;58875;51.996;4.504;2023-07-31T12:00:25;3.06;;;3.06;;
71172;SDS011;58875;51.996;4.504;2023-07-31T12:02:52;2.93;;;2.89;;
71172;SDS011;58875;51.996;4.504;2023-07-31T12:05:18;2.93;;;2.93;;
71172;SDS011;58875;51.996;4.504;2023-07-31T12:10:11;2.87;;;2.84;;
71172;SDS011;58875;51.996;4.504;2023-07-31T12:12:36;2.83;;;2.78;;
71172;SDS011;58875;51.996;4.504;2023-07-31T12:15:02;2.89;;;2.85;;
71172;SDS011;58875;51.996;4.504;2023-07-31T12:17:38;3.19;;;3.19;;
71172;SDS011;58875;51.996;4.504;2023-07-31T12:20:04;3.14;;;3.14;;
71172;SDS011;58875;51.996;4.504;2023-07-31T12:22:30;3.08;;;3.08;;
71172;SDS011;58875;51.996;4.504;2023-07-31T12:24:56;2.99;;;2.99;;
71172;SDS011;58875;51.996;4.504;2023-07-31T12:27:21;3.08;;;3.08;;
71172;SDS011;58875;51.996;4.504;2023-07-31T12:29:49;3.20;;;3.20;;
71172;SDS011;58875;51.996;4.504;2023-07-31T12:32:22;3.43;;;3.43;;
71172;SDS011;58875;51.996;4.504;2023-07-31T12:34:53;3.35;;;3.35;;
71172;SDS011;58875;51.996;4.504;2023-07-31T12:37:20;3.73;;;3.73;;
71172;SDS011;58875;51.996;4.504;2023-07-31T12:39:47;3.48;;;3.48;;
71172;SDS011;58875;51.996;4.504;2023-07-31T12:42:12;3.24;;;3.24;;
71172;SDS011;58875;51.996;4.504;2023-07-31T12:44:38;3.50;;;3.50;;
71172;SDS011;58875;51.996;4.504;2023-07-31T12:47:03;3.26;;;3.26;;
71172;SDS011;58875;51.996;4.504;2023-07-31T12:49:29;3.39;;;3.38;;
71172;SDS011;58875;51.996;4.504;2023-07-31T12:51:54;3.03;;;3.03;;
71172;SDS011;58875;51.996;4.504;2023-07-31T12:54:20;3.15;;;3.15;;
71172;SDS011;58875;51.996;4.504;2023-07-31T12:56:45;3.06;;;3.06;;
71172;SDS011;58875;51.996;4.504;2023-07-31T12:59:11;2.73;;;2.73;;
71172;SDS011;58875;51.996;4.504;2023-07-31T13:01:36;2.39;;;2.39;;
71172;SDS011;58875;51.996;4.504;2023-07-31T13:04:02;2.50;;;2.50;;
71172;SDS011;58875;51.996;4.504;2023-07-31T13:06:27;2.40;;;2.40;;
71172;SDS011;58875;51.996;4.504;2023-07-31T13:08:53;2.51;;;2.51;;
71172;SDS011;58875;51.996;4.504;2023-07-31T13:11:18;2.52;;;2.52;;
71172;SDS011;58875;51.996;4.504;2023-07-31T13:13:44;2.42;;;2.42;;
71172;SDS011;58875;51.996;4.504;2023-07-31T13:16:10;2.42;;;2.42;;
71172;SDS011;58875;51.996;4.504;2023-07-31T13:18:35;2.40;;;2.40;;
71172;SDS011;58875;51.996;4.504;2023-07-31T13:21:01;2.36;;;2.36;;
71172;SDS011;58875;51.996;4.504;2023-07-31T13:23:26;2.07;;;2.07;;
71172;SDS011;58875;51.996;4.504;2023-07-31T13:25:51;1.66;;;1.66;;
71172;SDS011;58875;51.996;4.504;2023-07-31T13:28:17;1.70;;;1.70;;
71172;SDS011;58875;51.996;4.504;2023-07-31T13:30:42;1.64;;;1.64;;
71172;SDS011;58875;51.996;4.504;2023-07-31T13:33:08;1.29;;;1.29;;
71172;SDS011;58875;51.996;4.504;2023-07-31T13:35:33;1.31;;;1.31;;
71172;SDS011;58875;51.996;4.504;2023-07-31T13:37:59;1.12;;;1.12;;
71172;SDS011;58875;51.996;4.504;2023-07-31T13:40:24;1.04;;;1.04;;
71172;SDS011;58875;51.996;4.504;2023-07-31T13:42:50;0.93;;;0.93;;
71172;SDS011;58875;51.996;4.504;2023-07-31T13:45:15;1.09;;;1.09;;
71172;SDS011;58875;51.996;4.504;2023-07-31T13:47:41;1.09;;;1.09;;
71172;SDS011;58875;51.996;4.504;2023-07-31T13:50:06;1.06;;;1.06;;
71172;SDS011;58875;51.996;4.504;2023-07-31T13:52:32;1.17;;;1.16;;
71172;SDS011;58875;51.996;4.504;2023-07-31T13:54:58;1.33;;;1.32;;
71172;SDS011;58875;51.996;4.504;2023-07-31T13:57:23;1.30;;;1.30;;
71172;SDS011;58875;51.996;4.504;2023-07-31T13:59:49;1.27;;;1.27;;
71172;SDS011;58875;51.996;4.504;2023-07-31T14:02:14;1.19;;;1.19;;
71172;SDS011;58875;51.996;4.504;2023-07-31T14:04:40;1.13;;;1.13;;
71172;SDS011;58875;51.996;4.504;2023-07-31T14:07:05;1.27;;;1.27;;
71172;SDS011;58875;51.996;4.504;2023-07-31T14:09:31;1.08;;;1.08;;
71172;SDS011;58875;51.996;4.504;2023-07-31T14:11:57;1.13;;;1.13;;
71172;SDS011;58875;51.996;4.504;2023-07-31T14:14:22;1.00;;;1.00;;
71172;SDS011;58875;51.996;4.504;2023-07-31T14:16:48;1.09;;;1.09;;
71172;SDS011;58875;51.996;4.504;2023-07-31T14:19:13;1.09;;;1.09;;
71172;SDS011;58875;51.996;4.504;2023-07-31T14:21:39;1.19;;;1.19;;
71172;SDS011;58875;51.996;4.504;2023-07-31T14:24:04;0.89;;;0.89;;
71172;SDS011;58875;51.996;4.504;2023-07-31T14:26:30;1.06;;;1.06;;
71172;SDS011;58875;51.996;4.504;2023-07-31T14:28:55;1.02;;;1.02;;
71172;SDS011;58875;51.996;4.504;2023-07-31T14:31:21;1.23;;;1.23;;
71172;SDS011;58875;51.996;4.504;2023-07-31T14:33:46;1.08;;;1.08;;
71172;SDS011;58875;51.996;4.504;2023-07-31T14:36:12;1.25;;;1.25;;
71172;SDS011;58875;51.996;4.504;2023-07-31T14:38:37;1.17;;;1.17;;
71172;SDS011;58875;51.996;4.504;2023-07-31T14:41:03;1.26;;;1.26;;
71172;SDS011;58875;51.996;4.504;2023-07-31T14:43:28;1.17;;;1.17;;
71172;SDS011;58875;51.996;4.504;2023-07-31T14:45:54;1.20;;;1.20;;
71172;SDS011;58875;51.996;4.504;2023-07-31T14:48:23;1.00;;;1.00;;
71172;SDS011;58875;51.996;4.504;2023-07-31T14:50:48;1.22;;;1.22;;
71172;SDS011;58875;51.996;4.504;2023-07-31T14:53:14;1.28;;;1.28;;
71172;SDS011;58875;51.996;4.504;2023-07-31T14:55:39;1.19;;;1.19;;
71172;SDS011;58875;51.996;4.504;2023-07-31T14:58:04;1.17;;;1.17;;
71172;SDS011;58875;51.996;4.504;2023-07-31T15:00:30;1.32;;;1.32;;
71172;SDS011;58875;51.996;4.504;2023-07-31T15:02:56;1.52;;;1.52;;
71172;SDS011;58875;51.996;4.504;2023-07-31T15:05:21;1.61;;;1.61;;